createdAt,value
2023-02-23T00:02:19.875Z,99970.06
2023-02-23T00:04:48.159Z,99974.38
2023-02-23T00:07:22.194Z,99979.69
2023-02-23T00:09:48.958Z,99985.38
2023-02-23T00:12:18.168Z,99986.19
2023-02-23T00:14:48.188Z,99976.41
2023-02-23T00:17:17.731Z,99986.50
2023-02-23T00:19:51.782Z,99982.31
2023-02-23T00:22:21.800Z,99985.78
2023-02-23T00:24:50.226Z,99995.63
2023-02-23T00:27:21.164Z,99995.94
2023-02-23T00:29:49.593Z,99987.94
2023-02-23T00:32:20.090Z,100005.31
2023-02-23T00:34:49.931Z,99996.03
2023-02-23T00:37:21.994Z,100013.13
2023-02-23T00:39:49.131Z,100009.53
2023-02-23T00:42:18.989Z,100022.19
2023-02-23T00:44:47.754Z,100023.03
2023-02-23T00:47:20.113Z,100031.94
2023-02-23T00:49:49.296Z,100026.34
2023-02-23T00:52:23.355Z,100033.22
2023-02-23T00:54:50.064Z,100039.19
2023-02-23T00:57:16.698Z,100036.41
2023-02-23T01:00:00.844Z,100043.25
2023-02-23T01:02:34.752Z,100032.75
2023-02-23T01:05:04.141Z,100043.09
2023-02-23T01:07:33.231Z,100044.00
2023-02-23T01:10:08.753Z,100037.53
2023-02-23T01:12:35.471Z,100041.69
2023-02-23T01:15:08.488Z,100038.19
2023-02-23T01:17:40.221Z,100037.94
2023-02-23T01:20:16.045Z,100039.59
2023-02-23T01:22:44.094Z,100038.19
2023-02-23T01:25:12.745Z,100035.75
2023-02-23T01:27:40.642Z,100037.50
2023-02-23T01:30:11.263Z,100036.75
2023-02-23T01:32:41.200Z,100038.31
2023-02-23T01:35:09.438Z,100043.97
2023-02-23T01:37:40.574Z,100039.25
2023-02-23T01:40:28.919Z,100058.34
2023-02-23T01:43:17.584Z,100061.59
2023-02-23T01:45:45.919Z,100059.31
2023-02-23T01:48:21.925Z,100060.56
2023-02-23T01:50:52.767Z,100070.41
2023-02-23T01:53:21.468Z,100075.56
2023-02-23T01:55:59.154Z,100075.72
2023-02-23T01:58:27.480Z,100080.88
2023-02-23T02:00:56.422Z,100076.19
2023-02-23T02:04:00.361Z,100086.28
2023-02-23T02:06:28.891Z,100085.25
2023-02-23T02:08:58.445Z,100088.81
2023-02-23T02:11:36.188Z,100092.38
2023-02-23T02:14:13.006Z,100092.84
2023-02-23T02:17:02.512Z,100089.94
2023-02-23T02:19:41.050Z,100106.81
2023-02-23T02:22:36.122Z,100101.03
2023-02-23T02:25:27.595Z,100104.53
2023-02-23T02:28:31.618Z,100108.59
2023-02-23T02:31:07.960Z,100106.09
2023-02-23T02:34:00.884Z,100110.13
2023-02-23T02:36:36.428Z,100111.16
2023-02-23T02:39:24.130Z,100109.50
2023-02-23T02:42:30.264Z,100108.13
2023-02-23T02:45:14.963Z,100104.19
2023-02-23T02:47:58.653Z,100122.91
2023-02-23T02:50:55.628Z,100106.94
2023-02-23T02:53:47.567Z,100112.63
2023-02-23T02:56:19.899Z,100124.31
2023-02-23T02:58:50.054Z,100112.81
2023-02-23T03:01:37.025Z,100119.63
2023-02-23T03:04:42.481Z,100122.06
2023-02-23T03:07:59.326Z,100121.72
2023-02-23T03:10:55.605Z,100113.44
2023-02-23T03:14:11.722Z,100123.09
2023-02-23T03:17:06.225Z,100123.28
2023-02-23T03:19:55.773Z,100127.63
2023-02-23T03:22:47.115Z,100129.06
2023-02-23T03:25:40.840Z,100121.06
2023-02-23T03:28:30.765Z,100128.88
2023-02-23T03:31:40.141Z,100133.38
2023-02-23T03:34:33.135Z,100135.22
2023-02-23T03:37:50.001Z,100126.88
2023-02-23T03:40:45.326Z,100137.69
2023-02-23T03:43:37.283Z,100138.91
2023-02-23T03:46:25.906Z,100144.25
2023-02-23T03:49:12.257Z,100140.94
2023-02-23T03:51:58.817Z,100140.56
2023-02-23T03:54:49.305Z,100138.91
2023-02-23T03:57:36.534Z,100141.19
2023-02-23T04:00:24.361Z,100140.94
2023-02-23T04:03:11.227Z,100138.44
2023-02-23T04:05:58.436Z,100143.78
2023-02-23T04:08:47.198Z,100150.38
2023-02-23T04:11:58.410Z,100144.78
2023-02-23T04:15:03.519Z,100148.09
2023-02-23T04:17:30.987Z,100144.78
2023-02-23T04:19:57.712Z,100148.09
2023-02-23T04:22:24.694Z,100149.75
2023-02-23T04:24:51.781Z,100147.66
2023-02-23T04:27:18.661Z,100154.25
2023-02-23T04:29:45.542Z,100147.66
2023-02-23T04:32:23.899Z,100152.88
2023-02-23T04:34:50.791Z,100149.09
2023-02-23T04:37:17.611Z,100151.50
2023-02-23T04:39:57.608Z,100157.03
2023-02-23T04:42:24.352Z,100152.41
2023-02-23T04:44:51.162Z,100154.72
2023-02-23T04:47:33.149Z,100155.75
2023-02-23T04:50:11.844Z,100159.84
2023-02-23T04:52:39.042Z,100171.91
2023-02-23T04:55:07.236Z,100163.09
2023-02-23T04:57:43.171Z,100174.56
2023-02-23T05:00:10.768Z,100171.44
2023-02-23T05:02:37.399Z,100174.94
2023-02-23T05:05:13.091Z,100179.16
2023-02-23T05:07:39.941Z,100184.13
2023-02-23T05:10:10.090Z,100184.50
2023-02-23T05:12:46.953Z,100181.72
2023-02-23T05:15:16.940Z,100185.84
2023-02-23T05:20:39.570Z,100185.84
2023-02-23T05:23:09.144Z,100189.88
2023-02-23T05:25:45.255Z,100192.09
2023-02-23T05:28:25.309Z,100192.91
2023-02-23T05:30:58.567Z,100189.44
2023-02-23T05:33:28.858Z,100187.22
2023-02-23T05:35:55.764Z,100185.84
2023-02-23T05:38:27.248Z,100184.13
2023-02-23T05:41:07.943Z,100196.94
2023-02-23T05:43:38.301Z,100195.66
2023-02-23T05:46:13.291Z,100202.84
2023-02-23T05:48:41.866Z,100203.00
2023-02-23T05:51:12.241Z,100205.88
2023-02-23T05:53:41.911Z,100202.84
2023-02-23T05:56:13.531Z,100198.69
2023-02-23T05:58:40.363Z,100202.72
2023-02-23T06:01:14.922Z,100199.41
2023-02-23T06:03:41.558Z,100207.59
2023-02-23T06:06:08.248Z,100207.75
2023-02-23T06:08:34.884Z,100209.97
2023-02-23T06:11:01.653Z,100211.44
2023-02-23T06:13:30.493Z,100204.69
2023-02-23T06:15:59.264Z,100209.53
2023-02-23T06:18:26.891Z,100212.38
2023-02-23T06:21:03.978Z,100216.88
2023-02-23T06:23:31.714Z,100223.84
2023-02-23T06:25:59.877Z,100228.97
2023-02-23T06:28:29.857Z,100229.50
2023-02-23T06:30:57.262Z,100229.13
2023-02-23T06:33:24.444Z,100233.44
2023-02-23T06:35:53.181Z,100236.94
2023-02-23T06:38:28.072Z,100243.09
2023-02-23T06:40:54.753Z,100242.56
2023-02-23T06:43:23.913Z,100243.22
2023-02-23T06:45:52.877Z,100249.84
2023-02-23T06:48:22.003Z,100260.66
2023-02-23T06:50:48.622Z,100256.16
2023-02-23T06:53:25.093Z,100257.34
2023-02-23T06:55:51.749Z,100263.59
2023-02-23T06:58:25.714Z,100260.50
2023-02-23T07:00:56.805Z,100263.81
2023-02-23T07:03:23.982Z,100257.47
2023-02-23T07:05:52.240Z,100265.91
2023-02-23T07:08:26.533Z,100264.91
2023-02-23T07:10:53.293Z,100270.06
2023-02-23T07:13:23.334Z,100274.19
2023-02-23T07:16:08.208Z,100272.16
2023-02-23T07:18:35.304Z,100275.47
2023-02-23T07:21:09.087Z,100274.59
2023-02-23T07:23:35.842Z,100271.72
2023-02-23T07:26:02.484Z,100279.28
2023-02-23T07:28:29.227Z,100280.72
2023-02-23T07:30:57.470Z,100638.69
2023-02-23T07:33:25.844Z,100641.66
2023-02-23T07:35:55.055Z,100639.00
2023-02-23T07:38:24.269Z,100638.16
2023-02-23T07:40:58.386Z,100639.00
2023-02-23T07:43:25.081Z,100646.47
2023-02-23T07:45:54.284Z,100641.97
2023-02-23T07:48:31.367Z,100644.50
2023-02-23T07:50:58.034Z,100646.16
2023-02-23T07:53:27.762Z,100646.81
2023-02-23T07:56:01.294Z,100642.28
2023-02-23T07:58:28.251Z,100653.09
2023-02-23T08:00:55.193Z,100645.25
2023-02-23T08:03:32.338Z,100646.94
2023-02-23T08:05:58.981Z,100646.22
2023-02-23T08:08:26.077Z,100653.91
2023-02-23T08:11:02.288Z,100651.25
2023-02-23T08:13:29.878Z,100652.72
2023-02-23T08:15:56.978Z,100654.69
2023-02-23T08:18:33.687Z,100655.69
2023-02-23T08:21:04.510Z,100662.03
2023-02-23T08:23:32.650Z,100659.50
2023-02-23T08:26:06.927Z,100658.84
2023-02-23T08:28:33.605Z,100660.88
2023-02-23T08:31:00.394Z,100672.19
2023-02-23T08:33:27.060Z,100662.19
2023-02-23T08:35:56.110Z,100666.81
2023-02-23T08:38:22.773Z,100672.28
2023-02-23T08:40:53.700Z,100667.31
2023-02-23T08:43:28.460Z,100672.66
2023-02-23T08:45:55.437Z,100665.59
2023-02-23T08:48:25.234Z,100674.13
2023-02-23T08:50:57.696Z,100672.44
2023-02-23T08:53:25.692Z,100677.94
2023-02-23T08:56:03.755Z,100683.91
2023-02-23T08:58:31.269Z,100677.69
2023-02-23T09:00:58.428Z,100678.59
2023-02-23T09:03:26.541Z,100685.28
2023-02-23T09:05:55.753Z,100678.88
2023-02-23T09:08:25.561Z,100676.56
2023-02-23T09:10:54.647Z,100679.06
2023-02-23T09:13:28.668Z,100682.03
2023-02-23T09:15:55.387Z,100680.25
2023-02-23T09:18:27.884Z,100682.97
2023-02-23T09:20:54.548Z,100686.31
2023-02-23T09:23:28.282Z,100684.63
2023-02-23T09:25:54.915Z,100687.97
2023-02-23T09:28:24.198Z,100687.66
2023-02-23T09:31:07.084Z,100698.78
2023-02-23T09:33:33.998Z,100686.47
2023-02-23T09:36:00.758Z,100681.63
2023-02-23T09:38:30.784Z,100687.44
2023-02-23T09:40:57.478Z,100693.91
2023-02-23T09:43:45.215Z,100689.69
2023-02-23T09:46:33.548Z,100701.22
2023-02-23T09:49:01.348Z,100697.06
2023-02-23T09:51:29.708Z,100703.38
2023-02-23T09:54:01.919Z,100700.38
2023-02-23T09:56:42.917Z,100703.72
2023-02-23T09:59:17.992Z,100704.88
2023-02-23T10:02:00.710Z,100703.59
2023-02-23T10:04:30.737Z,100706.41
2023-02-23T10:07:00.622Z,100704.72
2023-02-23T10:09:43.096Z,100704.34
2023-02-23T10:12:15.876Z,100707.34
2023-02-23T10:15:00.815Z,100710.84
2023-02-23T10:17:39.691Z,100707.41
2023-02-23T10:20:28.310Z,100703.28
2023-02-23T10:22:58.359Z,100704.25
2023-02-23T10:25:27.735Z,100705.41
2023-02-23T10:27:55.952Z,100704.72
2023-02-23T10:30:30.285Z,100710.69
2023-02-23T10:33:21.003Z,100714.22
2023-02-23T10:35:48.921Z,100714.88
2023-02-23T10:38:23.484Z,100711.53
2023-02-23T10:41:01.672Z,100706.34
2023-02-23T10:43:28.389Z,100705.19
2023-02-23T10:45:55.804Z,100703.13
2023-02-23T10:48:29.978Z,100701.34
2023-02-23T10:51:02.971Z,100695.63
2023-02-23T10:53:40.204Z,100701.31
2023-02-23T10:56:13.834Z,100702.13
2023-02-23T10:58:51.782Z,100701.47
2023-02-23T11:01:42.009Z,100694.78
2023-02-23T11:04:36.738Z,100699.91
2023-02-23T11:07:20.392Z,100697.72
2023-02-23T11:09:48.338Z,100695.75
2023-02-23T11:12:24.077Z,100691.44
2023-02-23T11:14:53.173Z,100693.22
2023-02-23T11:17:39.134Z,100689.59
2023-02-23T11:20:06.024Z,100683.16
2023-02-23T11:22:35.849Z,100692.47
2023-02-23T11:25:15.940Z,100689.72
2023-02-23T11:27:51.516Z,100681.03
2023-02-23T11:30:21.675Z,100690.91
2023-02-23T11:32:52.466Z,100682.59
2023-02-23T11:35:21.979Z,100680.59
2023-02-23T11:37:49.546Z,100673.91
2023-02-23T11:40:19.200Z,100676.09
2023-02-23T11:43:07.235Z,100669.84
2023-02-23T11:45:51.326Z,100660.94
2023-02-23T11:48:28.730Z,100655.31
2023-02-23T11:50:56.062Z,100649.81
2023-02-23T11:53:36.366Z,100652.75
2023-02-23T11:56:11.184Z,100640.78
2023-02-23T11:58:49.882Z,100636.97
2023-02-23T12:01:23.649Z,100639.56
2023-02-23T12:03:56.555Z,100628.09
2023-02-23T12:06:33.251Z,100625.00
2023-02-23T12:09:02.921Z,100627.53
2023-02-23T12:11:47.067Z,100618.22
2023-02-23T12:14:25.816Z,100616.50
2023-02-23T12:17:05.915Z,100615.19
2023-02-23T12:19:48.333Z,100610.88
2023-02-23T12:22:35.171Z,100608.13
2023-02-23T12:25:14.765Z,100607.81
2023-02-23T12:27:46.522Z,100601.75
2023-02-23T12:30:25.613Z,100602.28
2023-02-23T12:32:58.094Z,100600.88
2023-02-23T12:35:55.785Z,100599.84
2023-02-23T12:38:41.485Z,100600.47
2023-02-23T12:41:13.736Z,100606.72
2023-02-23T12:43:51.472Z,100598.81
2023-02-23T12:46:28.976Z,100598.84
2023-02-23T12:49:21.694Z,100592.91
2023-02-23T12:52:06.851Z,100594.19
2023-02-23T12:54:37.613Z,100590.81
2023-02-23T12:57:14.516Z,100582.03
2023-02-23T12:59:47.382Z,100578.06
2023-02-23T13:02:17.397Z,100573.44
2023-02-23T13:04:47.313Z,100577.13
2023-02-23T13:07:23.350Z,100581.97
2023-02-23T13:10:01.495Z,100579.00
2023-02-23T13:12:36.829Z,100588.44
2023-02-23T13:15:20.003Z,100582.16
2023-02-23T13:18:14.535Z,100593.50
2023-02-23T13:20:43.759Z,100593.19
2023-02-23T13:23:41.807Z,100602.16
2023-02-23T13:26:27.707Z,100598.03
2023-02-23T13:29:03.280Z,100593.56
2023-02-23T13:39:28.105Z,100603.97
2023-02-23T13:43:14.685Z,100612.19
2023-02-23T13:50:47.753Z,100613.94
2023-02-23T13:54:31.227Z,100619.78
2023-02-23T14:01:37.131Z,100622.47
2023-02-23T14:04:23.119Z,100628.47
2023-02-23T14:07:03.948Z,100634.13
2023-02-23T14:09:33.046Z,100627.16
2023-02-23T14:12:10.490Z,100633.13
2023-02-23T14:14:49.035Z,100633.47
2023-02-23T14:17:19.979Z,100634.44
2023-02-23T14:20:17.967Z,100637.16
2023-02-23T14:23:16.370Z,100646.81
2023-02-23T14:25:53.974Z,100649.28
2023-02-23T14:28:31.204Z,100640.78
2023-02-23T14:31:13.323Z,100653.75
2023-02-23T14:33:43.163Z,100645.91
2023-02-23T14:36:22.314Z,100645.47
2023-02-23T14:38:53.055Z,100640.47
2023-02-23T14:41:37.998Z,100646.66
2023-02-23T14:44:27.173Z,100644.19
2023-02-23T14:47:02.423Z,100646.84
2023-02-23T14:49:35.540Z,100652.34
2023-02-23T14:52:14.561Z,100649.66
2023-02-23T14:54:41.685Z,100657.00
2023-02-23T14:57:22.747Z,100663.81
2023-02-23T15:00:12.305Z,100657.34
2023-02-23T15:02:53.654Z,100661.38
2023-02-23T15:05:24.504Z,100649.25
2023-02-23T15:07:52.296Z,100649.94
2023-02-23T15:10:25.151Z,100646.28
2023-02-23T15:12:52.182Z,100645.28
2023-02-23T15:15:24.097Z,100651.59
2023-02-23T15:17:53.769Z,100660.75
2023-02-23T15:20:24.096Z,100665.75
2023-02-23T15:22:55.385Z,100655.25
2023-02-23T15:25:26.218Z,100659.06
2023-02-23T15:27:53.366Z,100667.56
2023-02-23T15:30:32.039Z,100668.59
2023-02-23T15:33:00.774Z,100669.72
2023-02-23T15:35:28.630Z,100672.53
2023-02-23T15:38:05.797Z,100672.72
2023-02-23T15:40:43.663Z,100669.53
2023-02-23T15:43:11.334Z,100670.72
2023-02-23T15:45:47.666Z,100681.06
2023-02-23T15:48:18.578Z,100678.53
2023-02-23T15:50:53.146Z,100676.38
2023-02-23T15:53:29.145Z,100673.53
2023-02-23T15:56:00.876Z,100669.22
2023-02-23T15:58:30.977Z,100666.91
2023-02-23T16:01:06.096Z,100668.06
2023-02-23T16:03:38.153Z,100669.22
2023-02-23T16:06:06.885Z,100674.72
2023-02-23T16:08:36.788Z,100674.22
2023-02-23T16:11:16.043Z,100672.06
2023-02-23T16:13:44.728Z,100669.88
2023-02-23T16:16:19.584Z,100685.53
2023-02-23T16:18:55.222Z,100675.56
2023-02-23T16:21:24.512Z,100673.22
2023-02-23T16:23:54.912Z,100668.41
2023-02-23T16:26:29.240Z,100671.41
2023-02-23T16:29:01.076Z,100670.88
2023-02-23T16:31:50.425Z,100675.06
2023-02-23T16:34:25.720Z,100671.41
2023-02-23T16:37:00.607Z,100670.75
2023-02-23T16:39:31.803Z,100670.41
2023-02-23T16:41:59.805Z,100669.56
2023-02-23T16:44:41.349Z,100668.72
2023-02-23T16:47:12.023Z,100674.56
2023-02-23T16:49:39.313Z,100679.22
2023-02-23T16:52:17.550Z,100679.22
2023-02-23T16:54:47.634Z,100681.06
2023-02-23T16:57:22.956Z,100681.53
2023-02-23T16:59:51.738Z,100689.66
2023-02-23T17:02:20.368Z,100691.19
2023-02-23T17:04:49.576Z,100689.84
2023-02-23T17:07:18.105Z,100691.53
2023-02-23T17:09:48.298Z,100697.03
2023-02-23T17:12:22.228Z,100697.84
2023-02-23T17:14:50.200Z,100701.16
2023-02-23T17:17:19.143Z,100704.81
2023-02-23T17:19:46.810Z,100708.97
2023-02-23T17:22:14.568Z,100702.50
2023-02-23T17:24:42.449Z,100702.50
2023-02-23T17:27:09.386Z,100712.47
2023-02-23T17:29:36.249Z,100702.81
2023-02-23T17:32:03.719Z,100708.94
2023-02-23T17:34:34.495Z,100707.13
2023-02-23T17:37:02.401Z,100705.78
2023-02-23T17:39:33.834Z,100704.16
2023-02-23T17:42:01.205Z,100704.47
2023-02-23T17:44:27.986Z,100709.13
2023-02-23T17:46:55.065Z,100714.28
2023-02-23T17:49:22.068Z,100707.63
2023-02-23T17:51:50.312Z,100708.13
2023-02-23T17:54:17.585Z,100712.78
2023-02-23T17:56:47.887Z,100720.56
2023-02-23T17:59:15.686Z,100714.41
2023-02-23T18:01:43.404Z,100713.41
2023-02-23T18:04:10.880Z,100710.44
2023-02-23T18:06:39.657Z,100706.44
2023-02-23T18:09:06.762Z,100710.91
2023-02-23T18:11:49.284Z,100707.94
2023-02-23T18:14:17.933Z,100707.09
2023-02-23T18:16:48.279Z,100704.78
2023-02-23T18:19:26.095Z,100686.50
2023-02-23T18:21:57.414Z,100683.84
2023-02-23T18:24:25.540Z,100686.00
2023-02-23T18:26:52.314Z,100683.00
2023-02-23T18:29:19.493Z,100676.00
2023-02-23T18:31:47.939Z,100687.16
2023-02-23T18:34:14.960Z,100688.50
2023-02-23T18:36:43.771Z,100686.31
2023-02-23T18:39:11.491Z,100690.16
2023-02-23T18:41:38.235Z,100694.63
2023-02-23T18:44:06.922Z,100688.16
2023-02-23T18:46:34.359Z,100687.66
2023-02-23T18:49:01.293Z,100690.63
2023-02-23T18:51:28.341Z,100688.66
2023-02-23T18:53:55.107Z,100692.81
2023-02-23T18:56:25.192Z,100695.81
2023-02-23T18:58:53.378Z,100740.31
2023-02-23T19:01:26.677Z,100726.53
2023-02-23T19:03:54.650Z,100708.22
2023-02-23T19:06:23.315Z,100710.03
2023-02-23T19:08:54.087Z,100711.28
2023-02-23T19:11:24.118Z,100715.78
2023-02-23T19:13:56.990Z,100714.88
2023-02-23T19:16:24.817Z,100712.00
2023-02-23T19:18:51.607Z,100715.81
2023-02-23T19:21:22.765Z,100702.63
2023-02-23T19:23:51.470Z,100707.75
2023-02-23T19:26:18.621Z,100709.91
2023-02-23T19:28:46.309Z,100713.41
2023-02-23T19:31:15.963Z,100710.22
2023-02-23T19:33:43.225Z,100710.63
2023-02-23T19:36:14.110Z,100711.16
2023-02-23T19:38:42.494Z,100705.16
2023-02-23T19:41:14.015Z,100704.66
2023-02-23T19:43:41.036Z,100698.75
2023-02-23T19:46:13.345Z,100696.59
2023-02-23T19:48:40.175Z,100699.47
2023-02-23T19:51:11.273Z,100711.38
2023-02-23T19:53:38.202Z,100715.34
2023-02-23T19:56:10.462Z,100716.47
2023-02-23T19:58:37.393Z,100710.09
2023-02-23T20:01:05.723Z,100716.09
2023-02-23T20:03:32.807Z,100715.78
2023-02-23T20:05:59.646Z,100719.72
2023-02-23T20:08:29.306Z,100713.22
2023-02-23T20:10:56.056Z,100709.72
2023-02-23T20:13:23.503Z,100697.75
2023-02-23T20:15:50.901Z,100703.72
2023-02-23T20:18:21.144Z,100707.44
2023-02-23T20:21:01.957Z,100706.56
2023-02-23T20:23:34.719Z,100698.44
2023-02-23T20:26:05.745Z,100709.72
2023-02-23T20:28:32.509Z,100702.91
2023-02-23T20:31:10.124Z,100701.00
2023-02-23T20:33:36.900Z,100699.59
2023-02-23T20:36:03.774Z,100702.38
2023-02-23T20:38:31.581Z,100701.47
2023-02-23T20:41:04.167Z,100695.94
2023-02-23T20:43:31.464Z,100694.94
2023-02-23T20:46:02.048Z,100694.41
2023-02-23T20:48:36.264Z,100698.72
2023-02-23T20:51:03.077Z,100694.41
2023-02-23T20:53:29.934Z,100695.94
2023-02-23T20:55:58.823Z,100696.22
2023-02-23T20:58:27.460Z,100680.31
2023-02-23T21:01:08.573Z,100688.28
2023-02-23T21:03:35.765Z,100690.94
2023-02-23T21:06:02.522Z,100689.41
2023-02-23T21:08:30.502Z,100686.59
2023-02-23T21:10:59.924Z,100683.97
2023-02-23T21:13:28.702Z,100676.13
2023-02-23T21:16:01.500Z,100680.31
2023-02-23T21:18:29.567Z,100667.66
2023-02-23T21:20:57.008Z,100675.94
2023-02-23T21:23:24.572Z,100675.25
2023-02-23T21:25:53.975Z,100675.53
2023-02-23T21:28:21.164Z,100670.25
2023-02-23T21:30:48.115Z,100664.41
2023-02-23T21:33:15.067Z,100659.63
2023-02-23T21:35:41.732Z,100656.00
2023-02-23T21:38:10.456Z,100656.53
2023-02-23T21:40:42.120Z,100661.31
2023-02-23T21:43:09.244Z,100654.34
2023-02-23T21:45:39.038Z,100649.03
2023-02-23T21:48:05.711Z,100650.84
2023-02-23T21:50:33.206Z,100644.03
2023-02-23T21:52:59.972Z,100645.03
2023-02-23T21:55:35.518Z,100651.00
2023-02-23T21:58:03.069Z,100654.72
2023-02-23T22:00:31.082Z,100662.28
2023-02-23T22:02:57.989Z,100652.97
2023-02-23T22:05:24.683Z,100654.09
2023-02-23T22:07:54.560Z,100655.75
2023-02-23T22:10:22.942Z,100653.28
2023-02-23T22:12:53.083Z,100654.09
2023-02-23T22:15:19.933Z,100649.63
2023-02-23T22:17:46.604Z,100643.03
2023-02-23T22:20:13.655Z,100649.91
2023-02-23T22:22:40.460Z,100647.38
2023-02-23T22:25:08.055Z,100645.19
2023-02-23T22:27:34.794Z,100650.19
2023-02-23T22:30:01.941Z,100641.19
2023-02-23T22:32:32.803Z,100640.53
2023-02-23T22:35:01.059Z,100634.97
2023-02-23T22:37:31.561Z,100626.25
2023-02-23T22:40:00.095Z,100623.38
2023-02-23T22:42:29.763Z,100618.81
2023-02-23T22:44:57.118Z,100619.53
2023-02-23T22:47:24.184Z,100626.50
2023-02-23T22:49:50.888Z,100618.31
2023-02-23T22:52:17.679Z,100614.75
2023-02-23T22:54:45.679Z,100604.88
2023-02-23T22:57:18.243Z,100606.44
2023-02-23T23:00:03.021Z,100612.28
2023-02-23T23:02:38.570Z,100601.06
2023-02-23T23:05:07.272Z,100596.34
2023-02-23T23:07:39.191Z,100591.19
2023-02-23T23:10:09.539Z,100586.88
2023-02-23T23:12:40.362Z,100592.00
2023-02-23T23:15:14.829Z,100587.28
2023-02-23T23:17:48.918Z,100592.16
2023-02-23T23:20:18.096Z,100592.94
2023-02-23T23:22:44.868Z,100588.47
2023-02-23T23:25:18.996Z,100584.97
2023-02-23T23:27:45.668Z,100585.94
2023-02-23T23:30:12.919Z,100590.78
2023-02-23T23:32:40.919Z,100588.41
2023-02-23T23:35:10.947Z,100591.72
2023-02-23T23:37:39.825Z,100586.28
2023-02-23T23:40:14.405Z,100582.41
2023-02-23T23:42:45.907Z,100575.88
2023-02-23T23:45:17.876Z,100575.34
2023-02-23T23:47:45.603Z,100566.34
2023-02-23T23:50:13.517Z,100563.25
2023-02-23T23:52:43.603Z,100553.03
2023-02-23T23:55:12.292Z,100553.72
2023-02-23T23:57:42.228Z,100544.97
